Terminal Aerodrome Forecast
Issued by NWS Shreveport, LA

Home | Current Version | Previous Version | Text Only | Print | Product List | Glossary On
Versions: 1 2 3 4 5 6 7 8 9 10 11 12
000
FTUS44 KSHV 241700
TAFSHV
TAF
KSHV 241723Z 2418/2518 VRB04KT P6SM SCT250
     FM250000 00000KT P6SM SKC
     FM251500 25005KT P6SM SKC=

USA.gov is the U.S. government's official web portal to all federal, state and local government web resources and services.